Imagination — C6FN2 — position and weather

sailwx.info

Track history (hours):
 
Tides and Currents Weather Stations Pressure Air Temp Water Temp Dewpoint Dewpoint Depression Visibility Wind Speed Wind Dir Waves Ship Positions

Imagination

Operator: Carnival Cruise Lines

Last reported at 2017-Mar-23 13:17 UTC. Time now 2017-Mar-23 18:22 UTC.
Position N 33°45' W 118°11'.

Type: Ship. MMSI: 309933000.

Date/timePositionNaut miles runAvg speedWind from/ knotsBaromVisibWave heightAir tempDewpointWater temp
2017-Mar-23 13:17N 33°45' W 118°11'1 1.0
2017-Mar-23 12:33N 33°44' W 118°11'10 9.7
2017-Mar-23 11:33N 33°35' W 118°09'1211.9
2017-Mar-23 10:33N 33°24' W 118°04'1313.0
2017-Mar-23 09:33N 33°11' W 117°59'1413.7
2017-Mar-23 08:33N 32°59' W 117°54'1414.2
2017-Mar-23 07:33N 32°45' W 117°49'1414.1
2017-Mar-23 06:33N 32°33' W 117°41'1322.2
2017-Mar-23 06:00N 32°24' W 117°30'512.4 300 / 301021.310.8 15.011.615.0
2017-Mar-23 05:33N 32°20' W 117°34'24 1.2
2017-Mar-22 10:13N 32°02' W 117°15'6 9.7
2017-Mar-22 09:33N 32°06' W 117°21'10 9.7
2017-Mar-22 08:33N 32°13' W 117°29'10 9.6
2017-Mar-22 07:33N 32°20' W 117°36'9 9.3
2017-Mar-22 06:33N 32°30' W 117°36'8 8.5
2017-Mar-22 05:33N 32°36' W 117°42'9 8.7
2017-Mar-22 04:33N 32°43' W 117°49'10 9.7
2017-Mar-22 03:33N 32°52' W 117°50'10 9.6
2017-Mar-22 02:33N 33°00' W 117°56'10 9.8
2017-Mar-22 01:33N 33°08' W 118°04'10 9.9
2017-Mar-22 00:34N 33°15' W 118°12'8 7.7
2017-Mar-21 23:28N 33°21' W 118°19'0 0.1
2017-Mar-21 22:31N 33°21' W 118°19'0 0.0
2017-Mar-21 21:33N 33°21' W 118°19'0 0.0
2017-Mar-21 20:30N 33°21' W 118°19'0 0.0
2017-Mar-21 19:32N 33°21' W 118°19'0 0.0
2017-Mar-21 18:29N 33°21' W 118°19'0 0.1
2017-Mar-21 17:32N 33°21' W 118°19'0 0.0
2017-Mar-21 16:31N 33°21' W 118°19'0 0.0
2017-Mar-21 15:31N 33°21' W 118°19'0 0.0
2017-Mar-21 14:33N 33°21' W 118°19'4 4.1
2017-Mar-21 13:33N 33°17' W 118°17'7 7.3
2017-Mar-21 12:33N 33°10' W 118°17'7 7.0
2017-Mar-21 11:34N 33°03' W 118°15'7 7.2
2017-Mar-21 10:33N 32°59' W 118°08'8 8.0
2017-Mar-21 09:33N 32°54' W 118°00'7 7.5
2017-Mar-21 08:33N 32°48' W 117°55'8 7.5
2017-Mar-21 07:33N 32°41' W 117°52'7 7.1
2017-Mar-21 06:34N 32°36' W 117°46'7 7.2
2017-Mar-21 05:33N 32°33' W 117°38'8 7.7
2017-Mar-21 04:34N 32°25' W 117°38'8 7.8
2017-Mar-21 03:33N 32°18' W 117°38'8 8.0
2017-Mar-21 02:33N 32°10' W 117°38'8 7.9
2017-Mar-21 01:31N 32°01' W 117°38'18 7.5
2017-Mar-20 23:06N 31°47' W 117°51'4 7.0
2017-Mar-20 22:29N 31°44' W 117°54'6 6.4
2017-Mar-20 21:31N 31°45' W 118°01'6 6.8
2017-Mar-20 20:33N 31°44' W 118°09'7 7.2
2017-Mar-20 19:32N 31°37' W 118°12'7 6.5
2017-Mar-20 18:32N 31°35' W 118°05'7 7.5
2017-Mar-20 17:33N 31°37' W 117°56'7 7.5
2017-Mar-20 16:34N 31°39' W 117°48'8 7.7
2017-Mar-20 15:33N 31°45' W 117°42'8 7.6
2017-Mar-20 14:33N 31°51' W 117°37'3 6.1
2017-Mar-20 14:00N 31°48' W 117°36'1125.1 280 / 101022.310.8 14.010.516.8
2017-Mar-20 13:33N 31°59' W 117°37'8 7.7
2017-Mar-20 12:34N 32°07' W 117°37'8 8.1
2017-Mar-20 11:33N 32°15' W 117°36'9 8.6
2017-Mar-20 10:33N 32°23' W 117°37'10 9.7
2017-Mar-20 09:34N 32°33' W 117°37'9 9.1
2017-Mar-20 08:34N 32°38' W 117°46'10 9.8
2017-Mar-20 07:34N 32°47' W 117°51'1010.0
2017-Mar-20 06:33N 32°56' W 117°55'1010.0
2017-Mar-20 05:33N 33°05' W 117°60'10 9.7
2017-Mar-20 04:33N 33°14' W 118°04'9 9.4
2017-Mar-20 03:33N 33°23' W 118°08'8 8.3
2017-Mar-20 02:34N 33°31' W 118°11'9 9.1
2017-Mar-20 01:34N 33°40' W 118°12'5 4.5
2017-Mar-20 00:26N 33°45' W 118°11'0 0.0
2017-Mar-19 23:32N 33°45' W 118°11'0 0.0
2017-Mar-19 22:32N 33°45' W 118°11'0 0.0
2017-Mar-19 21:31N 33°45' W 118°11'0 0.0
2017-Mar-19 20:31N 33°45' W 118°11'0 0.0
2017-Mar-19 19:33N 33°45' W 118°11'0 0.0
2017-Mar-19 18:33N 33°45' W 118°11'0 0.0
2017-Mar-19 17:29N 33°45' W 118°11'0 0.0
2017-Mar-19 16:32N 33°45' W 118°11'0 0.0
2017-Mar-19 15:32N 33°45' W 118°11'0 0.0
2017-Mar-19 14:31N 33°45' W 118°11'0 0.0
2017-Mar-19 13:25N 33°45' W 118°11'0 0.3
2017-Mar-19 12:33N 33°45' W 118°11'7 7.2
2017-Mar-19 11:33N 33°38' W 118°10'1211.9
2017-Mar-19 10:33N 33°26' W 118°05'1211.9
2017-Mar-19 09:33N 33°16' W 117°59'1515.2
2017-Mar-19 08:33N 33°01' W 117°54'1515.5
2017-Mar-19 07:33N 32°47' W 117°47'1313.2
2017-Mar-19 06:33N 32°35' W 117°40'1514.6
2017-Mar-19 05:34N 32°22' W 117°34'1514.9
2017-Mar-19 04:34N 32°09' W 117°24'1615.5
2017-Mar-19 03:31N 31°60' W 117°09'1715.1
2017-Mar-19 02:22N 31°54' W 116°50'10 0.8
2017-Mar-18 14:04N 31°50' W 116°38'4 7.4
2017-Mar-18 13:33N 31°50' W 116°43'7 6.8
2017-Mar-18 12:33N 31°53' W 116°50'7 7.0
2017-Mar-18 11:33N 31°51' W 116°58'7 6.9
2017-Mar-18 10:33N 31°49' W 117°05'7 7.0
2017-Mar-18 09:33N 31°47' W 117°13'7 7.1
2017-Mar-18 08:33N 31°46' W 117°21'7 7.0
2017-Mar-18 07:33N 31°44' W 117°29'7 7.0
2017-Mar-18 06:33N 31°42' W 117°37'712.7
2017-Mar-18 06:00N 31°36' W 117°42'510.9 310 / 41022.310.8 14.012.316.5
2017-Mar-18 05:34N 31°40' W 117°45'7 6.7
2017-Mar-18 04:33N 31°38' W 117°53'7 6.5
2017-Mar-18 03:33N 31°38' W 118°00'5 5.0
2017-Mar-18 02:33N 31°35' W 118°05'4 4.3
2017-Mar-18 01:33N 31°37' W 118°09'4 4.4
2017-Mar-18 00:33N 31°36' W 118°04'6 6.0
2017-Mar-17 23:34N 31°36' W 118°11'7 6.6
2017-Mar-17 22:33N 31°42' W 118°12'4 3.6
2017-Mar-17 21:33N 31°41' W 118°08'3 3.5
2017-Mar-17 20:33N 31°44' W 118°09'7 7.0
2017-Mar-17 19:34N 31°46' W 118°01'7 6.6
2017-Mar-17 18:33N 31°47' W 117°53'1211.6
2017-Mar-17 17:34N 31°48' W 117°40'1515.0
2017-Mar-17 16:34N 32°03' W 117°37'1413.9
2017-Mar-17 15:33N 32°17' W 117°36'7 6.6
2017-Mar-17 14:33N 32°24' W 117°37'7 6.7
2017-Mar-17 13:33N 32°30' W 117°36'6 6.3
2017-Mar-17 12:33N 32°35' W 117°41'1 2.0
2017-Mar-17 12:00N 32°36' W 117°42'512.1 360 / 71021.2 5.4 13.013.016.6
2017-Mar-17 11:33N 32°40' W 117°46'7 6.7
2017-Mar-17 10:33N 32°47' W 117°48'7 6.6
2017-Mar-17 09:33N 32°53' W 117°51'7 6.7
2017-Mar-17 08:33N 32°58' W 117°55'6 6.4
2017-Mar-17 07:33N 33°04' W 117°57'6 6.2
2017-Mar-17 06:33N 33°10' W 118°00'916.3
2017-Mar-17 06:00N 33°18' W 118°06'3 6.4 250 / 61022.2 13.011.316.6
2017-Mar-17 05:33N 33°16' W 118°04'6 6.4
2017-Mar-17 04:33N 33°22' W 118°07'7 6.7
2017-Mar-17 03:33N 33°28' W 118°10'7 6.7
2017-Mar-17 02:33N 33°34' W 118°13'9 8.6
2017-Mar-17 01:33N 33°43' W 118°11'2 2.3
2017-Mar-17 00:32N 33°45' W 118°11'0 0.0
2017-Mar-16 23:31N 33°45' W 118°11'0 0.0
2017-Mar-16 22:31N 33°45' W 118°11'0 0.0
2017-Mar-16 21:27N 33°45' W 118°11'0 0.0
2017-Mar-16 20:27N 33°45' W 118°11'0 0.0
2017-Mar-16 19:29N 33°45' W 118°11'0 0.0
2017-Mar-16 18:29N 33°45' W 118°11'0 0.0
2017-Mar-16 17:32N 33°45' W 118°11'0 0.0
2017-Mar-16 16:33N 33°45' W 118°11'0 0.0
2017-Mar-16 15:28N 33°45' W 118°11'0 0.0
2017-Mar-16 14:30N 33°45' W 118°11'0 0.0
2017-Mar-16 13:33N 33°45' W 118°11'0 0.2
2017-Mar-16 12:33N 33°45' W 118°11'8 8.0
2017-Mar-16 11:33N 33°37' W 118°10'1111.2
2017-Mar-16 10:33N 33°26' W 118°06'1212.2
2017-Mar-16 09:33N 33°15' W 118°00'1515.1
2017-Mar-16 08:33N 33°01' W 117°54'1515.0
2017-Mar-16 07:33N 32°47' W 117°48'1313.3
2017-Mar-16 06:34N 32°35' W 117°40'1515.3
2017-Mar-16 05:34N 32°21' W 117°34'1414.3
2017-Mar-16 04:33N 32°10' W 117°24'1615.4
2017-Mar-16 03:30N 31°60' W 117°09'9 0.6
2017-Mar-15 11:33N 31°56' W 116°59'9 9.4
2017-Mar-15 10:33N 31°60' W 117°09'10 9.7
2017-Mar-15 09:33N 32°05' W 117°19'1010.2
2017-Mar-15 08:33N 32°12' W 117°28'10 9.7
2017-Mar-15 07:33N 32°20' W 117°34'1010.0
2017-Mar-15 06:33N 32°30' W 117°36'8 8.5
2017-Mar-15 05:34N 32°36' W 117°42'5 8.2
2017-Mar-15 05:00N 32°36' W 117°48'613.3 240 / 41021.310.8 16.014.416.5
2017-Mar-15 04:33N 32°41' W 117°51'1010.0
2017-Mar-15 03:33N 32°51' W 117°49'1010.1
2017-Mar-15 02:33N 32°60' W 117°56'1010.4
2017-Mar-15 01:33N 33°07' W 118°05'1010.1
2017-Mar-15 00:33N 33°15' W 118°12'9 8.6
2017-Mar-14 23:33N 33°21' W 118°19'0 0.1
2017-Mar-14 22:33N 33°21' W 118°19'0 0.0
2017-Mar-14 21:32N 33°21' W 118°19'0 0.0
2017-Mar-14 20:32N 33°21' W 118°19'0 0.1
2017-Mar-14 19:31N 33°21' W 118°19'0 0.1
2017-Mar-14 18:31N 33°21' W 118°19'0 0.1
2017-Mar-14 17:33N 33°21' W 118°19'0 0.0
2017-Mar-14 16:33N 33°21' W 118°19'0 0.0
2017-Mar-14 15:33N 33°21' W 118°19'0 0.0
2017-Mar-14 14:33N 33°21' W 118°19'4 3.9
2017-Mar-14 13:33N 33°18' W 118°17'7 7.2
2017-Mar-14 12:33N 33°10' W 118°17'6 6.5
2017-Mar-14 11:33N 33°05' W 118°13'7 7.2
2017-Mar-14 10:33N 32°59' W 118°07'7 7.4
2017-Mar-14 09:33N 32°54' W 118°01'8 7.9
2017-Mar-14 08:33N 32°47' W 117°56'8 8.5
2017-Mar-14 07:33N 32°39' W 117°53'7 7.2
2017-Mar-14 06:33N 32°36' W 117°45'7 7.3
2017-Mar-14 05:33N 32°32' W 117°38'8 7.8
2017-Mar-14 04:33N 32°24' W 117°37'8 7.9
2017-Mar-14 03:33N 32°16' W 117°38'8 8.4
2017-Mar-14 02:33N 32°08' W 117°38'9 8.5
2017-Mar-14 01:33N 31°59' W 117°39'8 7.9
2017-Mar-14 00:33N 31°52' W 117°43'9 8.6
2017-Mar-13 23:33N 31°48' W 117°52'8 7.7
2017-Mar-13 22:33N 31°45' W 118°01'7 7.4
2017-Mar-13 21:33N 31°43' W 118°09'2 1.9
2017-Mar-13 20:33N 31°43' W 118°11'8 7.7
2017-Mar-13 19:33N 31°35' W 118°11'8 8.1
2017-Mar-13 18:33N 31°36' W 118°01'8 7.7
2017-Mar-13 17:33N 31°38' W 117°53'8 8.2
2017-Mar-13 16:33N 31°42' W 117°44'9 8.5
2017-Mar-13 15:33N 31°49' W 117°38'8 8.5
2017-Mar-13 14:33N 31°57' W 117°36'9 8.6
2017-Mar-13 13:33N 32°06' W 117°36'  
Track history (hours):
 
Tides and Currents Weather Stations Pressure Air Temp Water Temp Dewpoint Dewpoint Depression Visibility Wind Speed Wind Dir Waves Ship Positions

Imagination

Operator: Carnival Cruise Lines

Last reported at 2017-Mar-23 13:17 UTC. Time now 2017-Mar-23 18:22 UTC.
Position N 33°45' W 118°11'.

Type: Ship. MMSI: 309933000.

Date/timePositionNaut miles runAvg speedWind from/ knotsBaromVisibWave heightAir tempDewpointWater temp
2017-Mar-23 13:17N 33°45' W 118°11'1 1.0
2017-Mar-23 12:33N 33°44' W 118°11'10 9.7
2017-Mar-23 11:33N 33°35' W 118°09'1211.9
2017-Mar-23 10:33N 33°24' W 118°04'1313.0
2017-Mar-23 09:33N 33°11' W 117°59'1413.7
2017-Mar-23 08:33N 32°59' W 117°54'1414.2
2017-Mar-23 07:33N 32°45' W 117°49'1414.1
2017-Mar-23 06:33N 32°33' W 117°41'1322.2
2017-Mar-23 06:00N 32°24' W 117°30'512.4 300 / 301021.310.8 15.011.615.0
2017-Mar-23 05:33N 32°20' W 117°34'24 1.2
2017-Mar-22 10:13N 32°02' W 117°15'6 9.7
2017-Mar-22 09:33N 32°06' W 117°21'10 9.7
2017-Mar-22 08:33N 32°13' W 117°29'10 9.6
2017-Mar-22 07:33N 32°20' W 117°36'9 9.3
2017-Mar-22 06:33N 32°30' W 117°36'8 8.5
2017-Mar-22 05:33N 32°36' W 117°42'9 8.7
2017-Mar-22 04:33N 32°43' W 117°49'10 9.7
2017-Mar-22 03:33N 32°52' W 117°50'10 9.6
2017-Mar-22 02:33N 33°00' W 117°56'10 9.8
2017-Mar-22 01:33N 33°08' W 118°04'10 9.9
2017-Mar-22 00:34N 33°15' W 118°12'8 7.7
2017-Mar-21 23:28N 33°21' W 118°19'0 0.1
2017-Mar-21 22:31N 33°21' W 118°19'0 0.0
2017-Mar-21 21:33N 33°21' W 118°19'0 0.0
2017-Mar-21 20:30N 33°21' W 118°19'0 0.0
2017-Mar-21 19:32N 33°21' W 118°19'0 0.0
2017-Mar-21 18:29N 33°21' W 118°19'0 0.1
2017-Mar-21 17:32N 33°21' W 118°19'0 0.0
2017-Mar-21 16:31N 33°21' W 118°19'0 0.0
2017-Mar-21 15:31N 33°21' W 118°19'0 0.0
2017-Mar-21 14:33N 33°21' W 118°19'4 4.1
2017-Mar-21 13:33N 33°17' W 118°17'7 7.3
2017-Mar-21 12:33N 33°10' W 118°17'7 7.0
2017-Mar-21 11:34N 33°03' W 118°15'7 7.2
2017-Mar-21 10:33N 32°59' W 118°08'8 8.0
2017-Mar-21 09:33N 32°54' W 118°00'7 7.5
2017-Mar-21 08:33N 32°48' W 117°55'8 7.5
2017-Mar-21 07:33N 32°41' W 117°52'7 7.1
2017-Mar-21 06:34N 32°36' W 117°46'7 7.2
2017-Mar-21 05:33N 32°33' W 117°38'8 7.7
2017-Mar-21 04:34N 32°25' W 117°38'8 7.8
2017-Mar-21 03:33N 32°18' W 117°38'8 8.0
2017-Mar-21 02:33N 32°10' W 117°38'8 7.9
2017-Mar-21 01:31N 32°01' W 117°38'18 7.5
2017-Mar-20 23:06N 31°47' W 117°51'4 7.0
2017-Mar-20 22:29N 31°44' W 117°54'6 6.4
2017-Mar-20 21:31N 31°45' W 118°01'6 6.8
2017-Mar-20 20:33N 31°44' W 118°09'7 7.2
2017-Mar-20 19:32N 31°37' W 118°12'7 6.5
2017-Mar-20 18:32N 31°35' W 118°05'7 7.5
2017-Mar-20 17:33N 31°37' W 117°56'7 7.5
2017-Mar-20 16:34N 31°39' W 117°48'8 7.7
2017-Mar-20 15:33N 31°45' W 117°42'8 7.6
2017-Mar-20 14:33N 31°51' W 117°37'3 6.1
2017-Mar-20 14:00N 31°48' W 117°36'1125.1 280 / 101022.310.8 14.010.516.8
2017-Mar-20 13:33N 31°59' W 117°37'8 7.7
2017-Mar-20 12:34N 32°07' W 117°37'8 8.1
2017-Mar-20 11:33N 32°15' W 117°36'9 8.6
2017-Mar-20 10:33N 32°23' W 117°37'10 9.7
2017-Mar-20 09:34N 32°33' W 117°37'9 9.1
2017-Mar-20 08:34N 32°38' W 117°46'10 9.8
2017-Mar-20 07:34N 32°47' W 117°51'1010.0
2017-Mar-20 06:33N 32°56' W 117°55'1010.0
2017-Mar-20 05:33N 33°05' W 117°60'10 9.7
2017-Mar-20 04:33N 33°14' W 118°04'9 9.4
2017-Mar-20 03:33N 33°23' W 118°08'8 8.3
2017-Mar-20 02:34N 33°31' W 118°11'9 9.1
2017-Mar-20 01:34N 33°40' W 118°12'5 4.5
2017-Mar-20 00:26N 33°45' W 118°11'0 0.0
2017-Mar-19 23:32N 33°45' W 118°11'0 0.0
2017-Mar-19 22:32N 33°45' W 118°11'0 0.0
2017-Mar-19 21:31N 33°45' W 118°11'0 0.0
2017-Mar-19 20:31N 33°45' W 118°11'0 0.0
2017-Mar-19 19:33N 33°45' W 118°11'0 0.0
2017-Mar-19 18:33N 33°45' W 118°11'0 0.0
2017-Mar-19 17:29N 33°45' W 118°11'0 0.0
2017-Mar-19 16:32N 33°45' W 118°11'0 0.0
2017-Mar-19 15:32N 33°45' W 118°11'0 0.0
2017-Mar-19 14:31N 33°45' W 118°11'0 0.0
2017-Mar-19 13:25N 33°45' W 118°11'0 0.3
2017-Mar-19 12:33N 33°45' W 118°11'7 7.2
2017-Mar-19 11:33N 33°38' W 118°10'1211.9
2017-Mar-19 10:33N 33°26' W 118°05'1211.9
2017-Mar-19 09:33N 33°16' W 117°59'1515.2
2017-Mar-19 08:33N 33°01' W 117°54'1515.5
2017-Mar-19 07:33N 32°47' W 117°47'1313.2
2017-Mar-19 06:33N 32°35' W 117°40'1514.6
2017-Mar-19 05:34N 32°22' W 117°34'1514.9
2017-Mar-19 04:34N 32°09' W 117°24'1615.5
2017-Mar-19 03:31N 31°60' W 117°09'1715.1
2017-Mar-19 02:22N 31°54' W 116°50'10 0.8
2017-Mar-18 14:04N 31°50' W 116°38'4 7.4
2017-Mar-18 13:33N 31°50' W 116°43'7 6.8
2017-Mar-18 12:33N 31°53' W 116°50'7 7.0
2017-Mar-18 11:33N 31°51' W 116°58'7 6.9
2017-Mar-18 10:33N 31°49' W 117°05'7 7.0
2017-Mar-18 09:33N 31°47' W 117°13'7 7.1
2017-Mar-18 08:33N 31°46' W 117°21'7 7.0
2017-Mar-18 07:33N 31°44' W 117°29'7 7.0
2017-Mar-18 06:33N 31°42' W 117°37'712.7
2017-Mar-18 06:00N 31°36' W 117°42'510.9 310 / 41022.310.8 14.012.316.5
2017-Mar-18 05:34N 31°40' W 117°45'7 6.7
2017-Mar-18 04:33N 31°38' W 117°53'7 6.5
2017-Mar-18 03:33N 31°38' W 118°00'5 5.0
2017-Mar-18 02:33N 31°35' W 118°05'4 4.3
2017-Mar-18 01:33N 31°37' W 118°09'4 4.4
2017-Mar-18 00:33N 31°36' W 118°04'6 6.0
2017-Mar-17 23:34N 31°36' W 118°11'7 6.6
2017-Mar-17 22:33N 31°42' W 118°12'4 3.6
2017-Mar-17 21:33N 31°41' W 118°08'3 3.5
2017-Mar-17 20:33N 31°44' W 118°09'7 7.0
2017-Mar-17 19:34N 31°46' W 118°01'7 6.6
2017-Mar-17 18:33N 31°47' W 117°53'1211.6
2017-Mar-17 17:34N 31°48' W 117°40'1515.0
2017-Mar-17 16:34N 32°03' W 117°37'1413.9
2017-Mar-17 15:33N 32°17' W 117°36'7 6.6
2017-Mar-17 14:33N 32°24' W 117°37'7 6.7
2017-Mar-17 13:33N 32°30' W 117°36'6 6.3
2017-Mar-17 12:33N 32°35' W 117°41'1 2.0
2017-Mar-17 12:00N 32°36' W 117°42'512.1 360 / 71021.2 5.4 13.013.016.6
2017-Mar-17 11:33N 32°40' W 117°46'7 6.7
2017-Mar-17 10:33N 32°47' W 117°48'7 6.6
2017-Mar-17 09:33N 32°53' W 117°51'7 6.7
2017-Mar-17 08:33N 32°58' W 117°55'6 6.4
2017-Mar-17 07:33N 33°04' W 117°57'6 6.2
2017-Mar-17 06:33N 33°10' W 118°00'916.3
2017-Mar-17 06:00N 33°18' W 118°06'3 6.4 250 / 61022.2 13.011.316.6
2017-Mar-17 05:33N 33°16' W 118°04'6 6.4
2017-Mar-17 04:33N 33°22' W 118°07'7 6.7
2017-Mar-17 03:33N 33°28' W 118°10'7 6.7
2017-Mar-17 02:33N 33°34' W 118°13'9 8.6
2017-Mar-17 01:33N 33°43' W 118°11'2 2.3
2017-Mar-17 00:32N 33°45' W 118°11'0 0.0
2017-Mar-16 23:31N 33°45' W 118°11'0 0.0
2017-Mar-16 22:31N 33°45' W 118°11'0 0.0
2017-Mar-16 21:27N 33°45' W 118°11'0 0.0
2017-Mar-16 20:27N 33°45' W 118°11'0 0.0
2017-Mar-16 19:29N 33°45' W 118°11'0 0.0
2017-Mar-16 18:29N 33°45' W 118°11'0 0.0
2017-Mar-16 17:32N 33°45' W 118°11'0 0.0
2017-Mar-16 16:33N 33°45' W 118°11'0 0.0
2017-Mar-16 15:28N 33°45' W 118°11'0 0.0
2017-Mar-16 14:30N 33°45' W 118°11'0 0.0
2017-Mar-16 13:33N 33°45' W 118°11'0 0.2
2017-Mar-16 12:33N 33°45' W 118°11'8 8.0
2017-Mar-16 11:33N 33°37' W 118°10'1111.2
2017-Mar-16 10:33N 33°26' W 118°06'1212.2
2017-Mar-16 09:33N 33°15' W 118°00'1515.1
2017-Mar-16 08:33N 33°01' W 117°54'1515.0
2017-Mar-16 07:33N 32°47' W 117°48'1313.3
2017-Mar-16 06:34N 32°35' W 117°40'1515.3
2017-Mar-16 05:34N 32°21' W 117°34'1414.3
2017-Mar-16 04:33N 32°10' W 117°24'1615.4
2017-Mar-16 03:30N 31°60' W 117°09'9 0.6
2017-Mar-15 11:33N 31°56' W 116°59'9 9.4
2017-Mar-15 10:33N 31°60' W 117°09'10 9.7
2017-Mar-15 09:33N 32°05' W 117°19'1010.2
2017-Mar-15 08:33N 32°12' W 117°28'10 9.7
2017-Mar-15 07:33N 32°20' W 117°34'1010.0
2017-Mar-15 06:33N 32°30' W 117°36'8 8.5
2017-Mar-15 05:34N 32°36' W 117°42'5 8.2
2017-Mar-15 05:00N 32°36' W 117°48'613.3 240 / 41021.310.8 16.014.416.5
2017-Mar-15 04:33N 32°41' W 117°51'1010.0
2017-Mar-15 03:33N 32°51' W 117°49'1010.1
2017-Mar-15 02:33N 32°60' W 117°56'1010.4
2017-Mar-15 01:33N 33°07' W 118°05'1010.1
2017-Mar-15 00:33N 33°15' W 118°12'9 8.6
2017-Mar-14 23:33N 33°21' W 118°19'0 0.1
2017-Mar-14 22:33N 33°21' W 118°19'0 0.0
2017-Mar-14 21:32N 33°21' W 118°19'0 0.0
2017-Mar-14 20:32N 33°21' W 118°19'0 0.1
2017-Mar-14 19:31N 33°21' W 118°19'0 0.1
2017-Mar-14 18:31N 33°21' W 118°19'0 0.1
2017-Mar-14 17:33N 33°21' W 118°19'0 0.0
2017-Mar-14 16:33N 33°21' W 118°19'0 0.0
2017-Mar-14 15:33N 33°21' W 118°19'0 0.0
2017-Mar-14 14:33N 33°21' W 118°19'4 3.9
2017-Mar-14 13:33N 33°18' W 118°17'7 7.2
2017-Mar-14 12:33N 33°10' W 118°17'6 6.5
2017-Mar-14 11:33N 33°05' W 118°13'7 7.2
2017-Mar-14 10:33N 32°59' W 118°07'7 7.4
2017-Mar-14 09:33N 32°54' W 118°01'8 7.9
2017-Mar-14 08:33N 32°47' W 117°56'8 8.5
2017-Mar-14 07:33N 32°39' W 117°53'7 7.2
2017-Mar-14 06:33N 32°36' W 117°45'7 7.3
2017-Mar-14 05:33N 32°32' W 117°38'8 7.8
2017-Mar-14 04:33N 32°24' W 117°37'8 7.9
2017-Mar-14 03:33N 32°16' W 117°38'8 8.4
2017-Mar-14 02:33N 32°08' W 117°38'9 8.5
2017-Mar-14 01:33N 31°59' W 117°39'8 7.9
2017-Mar-14 00:33N 31°52' W 117°43'9 8.6
2017-Mar-13 23:33N 31°48' W 117°52'8 7.7
2017-Mar-13 22:33N 31°45' W 118°01'7 7.4
2017-Mar-13 21:33N 31°43' W 118°09'2 1.9
2017-Mar-13 20:33N 31°43' W 118°11'8 7.7
2017-Mar-13 19:33N 31°35' W 118°11'8 8.1
2017-Mar-13 18:33N 31°36' W 118°01'8 7.7
2017-Mar-13 17:33N 31°38' W 117°53'8 8.2
2017-Mar-13 16:33N 31°42' W 117°44'9 8.5
2017-Mar-13 15:33N 31°49' W 117°38'8 8.5
2017-Mar-13 14:33N 31°57' W 117°36'9 8.6
2017-Mar-13 13:33N 32°06' W 117°36'  

Dump ship's entire track history